createdAt,value
2022-12-18T00:01:16.450Z,98893.97
2022-12-18T00:03:45.390Z,98884.53
2022-12-18T00:06:17.698Z,98889.88
2022-12-18T00:08:46.142Z,98884.72
2022-12-18T00:11:16.366Z,98869.50
2022-12-18T00:13:44.913Z,98867.16
2022-12-18T00:16:14.931Z,98868.44
2022-12-18T00:18:43.606Z,98869.09
2022-12-18T00:21:12.673Z,98862.84
2022-12-18T00:23:43.349Z,98858.16
2022-12-18T00:26:13.291Z,98852.47
2022-12-18T00:28:44.794Z,98854.44
2022-12-18T00:31:13.955Z,98852.88
2022-12-18T00:33:42.492Z,98826.50
2022-12-18T00:36:13.027Z,98814.94
2022-12-18T00:38:43.017Z,98833.72
2022-12-18T00:41:12.162Z,98847.38
2022-12-18T00:43:40.172Z,98809.47
2022-12-18T00:46:08.760Z,98831.34
2022-12-18T00:48:37.828Z,98814.41
2022-12-18T00:51:05.938Z,98796.63
2022-12-18T00:53:36.146Z,98807.09
2022-12-18T00:56:06.279Z,98778.22
2022-12-18T00:58:37.356Z,98795.28
2022-12-18T01:01:06.423Z,98788.38
2022-12-18T01:03:36.465Z,98784.97
2022-12-18T01:06:08.060Z,98780.94
2022-12-18T01:08:36.308Z,98775.91
2022-12-18T01:11:11.594Z,98774.78
2022-12-18T01:13:40.447Z,98758.59
2022-12-18T01:16:10.058Z,98745.06
2022-12-18T01:18:38.363Z,98728.91
2022-12-18T01:21:08.426Z,98732.09
2022-12-18T01:23:39.196Z,98747.44
2022-12-18T01:26:08.481Z,98726.78
2022-12-18T01:28:38.830Z,98708.00
2022-12-18T01:31:16.330Z,98705.94
2022-12-18T01:33:44.629Z,98720.22
2022-12-18T01:36:17.139Z,98692.81
2022-12-18T01:38:45.425Z,98685.84
2022-12-18T01:41:13.669Z,98732.94
2022-12-18T01:43:50.986Z,98704.09
2022-12-18T01:46:20.589Z,98714.13
2022-12-18T01:48:50.068Z,98730.75
2022-12-18T01:51:18.424Z,98707.28
2022-12-18T01:53:47.318Z,98727.88
2022-12-18T01:56:16.865Z,98709.03
2022-12-18T01:58:50.057Z,98716.13
2022-12-18T02:01:20.073Z,98710.81
2022-12-18T02:03:48.203Z,98702.06
2022-12-18T02:06:19.180Z,98700.34
2022-12-18T02:08:53.593Z,98706.19
2022-12-18T02:11:26.570Z,98688.41
2022-12-18T02:14:02.713Z,98702.56
2022-12-18T02:16:37.040Z,98700.97
2022-12-18T02:19:07.982Z,98688.00
2022-12-18T02:21:39.160Z,98717.28
2022-12-18T02:24:18.312Z,98699.19
2022-12-18T02:26:50.974Z,98683.25
2022-12-18T02:29:24.983Z,98685.97
2022-12-18T02:31:54.861Z,98702.06
2022-12-18T02:34:24.564Z,98668.50
2022-12-18T02:36:53.867Z,98682.06
2022-12-18T02:39:24.198Z,98687.13
2022-12-18T02:42:03.541Z,98706.66
2022-12-18T02:44:31.697Z,98685.47
2022-12-18T02:47:00.146Z,98667.31
2022-12-18T02:49:33.780Z,98700.44
2022-12-18T02:52:07.634Z,98680.22
2022-12-18T02:54:44.870Z,98682.47
2022-12-18T02:57:17.887Z,98684.31
2022-12-18T02:59:51.725Z,98681.16
2022-12-18T03:02:23.957Z,98691.81
2022-12-18T03:04:57.057Z,98686.63
2022-12-18T03:07:28.853Z,98673.75
2022-12-18T03:10:00.243Z,98687.22
2022-12-18T03:12:32.422Z,98682.41
2022-12-18T03:15:03.110Z,98669.41
2022-12-18T03:17:33.160Z,98684.75
2022-12-18T03:20:04.633Z,98677.00
2022-12-18T03:22:36.181Z,98667.81
2022-12-18T03:25:07.362Z,98654.97
2022-12-18T03:27:40.879Z,98666.41
2022-12-18T03:30:13.617Z,98650.06
2022-12-18T03:32:44.672Z,98669.97
2022-12-18T03:35:15.683Z,98686.81
2022-12-18T03:37:44.195Z,98682.16
2022-12-18T03:40:12.698Z,98676.97
2022-12-18T03:42:47.385Z,98715.09
2022-12-18T03:45:21.154Z,98691.50
2022-12-18T03:47:58.065Z,98680.88
2022-12-18T03:50:29.828Z,98687.31
2022-12-18T03:53:02.549Z,98690.31
2022-12-18T03:55:34.579Z,98699.66
2022-12-18T03:58:09.542Z,98674.25
2022-12-18T04:00:50.546Z,98665.47
2022-12-18T04:03:25.414Z,98669.56
2022-12-18T04:05:56.894Z,98671.28
2022-12-18T04:08:26.780Z,98685.97
2022-12-18T04:11:05.930Z,98674.91
2022-12-18T04:13:38.254Z,98672.53
2022-12-18T04:16:15.596Z,98680.41
2022-12-18T04:18:46.133Z,98671.63
2022-12-18T04:21:16.159Z,98664.47
2022-12-18T04:23:44.951Z,98684.06
2022-12-18T04:26:14.573Z,98674.63
2022-12-18T04:29:00.499Z,98674.88
2022-12-18T04:31:30.563Z,98677.59
2022-12-18T04:33:58.887Z,98676.38
2022-12-18T04:36:27.095Z,98667.56
2022-12-18T04:38:55.471Z,98700.44
2022-12-18T04:41:23.785Z,98690.72
2022-12-18T04:43:54.369Z,98720.25
2022-12-18T04:46:23.989Z,98708.69
2022-12-18T04:48:52.099Z,98723.16
2022-12-18T04:51:26.095Z,98711.69
2022-12-18T04:53:54.927Z,98718.97
2022-12-18T04:56:22.986Z,98747.09
2022-12-18T04:58:51.051Z,98742.50
2022-12-18T05:01:20.042Z,98759.47
2022-12-18T05:03:49.632Z,98745.00
2022-12-18T05:06:17.820Z,98748.53
2022-12-18T05:08:45.972Z,98776.75
2022-12-18T05:11:16.778Z,98776.44
2022-12-18T05:13:45.478Z,98766.94
2022-12-18T05:16:14.093Z,98780.06
2022-12-18T05:18:42.619Z,98780.59
2022-12-18T05:21:12.080Z,98815.59
2022-12-18T05:23:40.459Z,98794.56
2022-12-18T05:26:09.044Z,98800.34
2022-12-18T05:28:38.039Z,98827.88
2022-12-18T05:31:07.070Z,98798.53
2022-12-18T05:33:36.547Z,98801.78
2022-12-18T05:36:06.041Z,98800.78
2022-12-18T05:38:36.832Z,98790.78
2022-12-18T05:41:05.344Z,98799.91
2022-12-18T05:43:33.948Z,98788.34
2022-12-18T05:46:05.735Z,98811.31
2022-12-18T05:48:34.032Z,98803.34
2022-12-18T05:51:06.092Z,98799.22
2022-12-18T05:53:36.174Z,98812.50
2022-12-18T05:56:05.520Z,98816.31
2022-12-18T05:58:33.895Z,98831.31
2022-12-18T06:01:08.355Z,98840.47
2022-12-18T06:03:36.515Z,98841.31
2022-12-18T06:06:04.887Z,98829.97
2022-12-18T06:08:33.082Z,98837.34
2022-12-18T06:11:02.900Z,98846.53
2022-12-18T06:13:31.241Z,98860.06
2022-12-18T06:15:59.397Z,98856.59
2022-12-18T06:18:27.565Z,98852.03
2022-12-18T06:20:58.637Z,98861.75
2022-12-18T06:23:26.921Z,98876.41
2022-12-18T06:25:55.197Z,98856.44
2022-12-18T06:28:24.728Z,98866.47
2022-12-18T06:30:54.209Z,98885.22
2022-12-18T06:33:22.433Z,98867.81
2022-12-18T06:35:50.754Z,98882.22
2022-12-18T06:38:18.930Z,98874.06
2022-12-18T06:40:47.105Z,98885.53
2022-12-18T06:43:15.498Z,98879.31
2022-12-18T06:45:45.015Z,98862.81
2022-12-18T06:48:13.211Z,98884.03
2022-12-18T06:50:44.309Z,98857.25
2022-12-18T06:53:12.406Z,98896.00
2022-12-18T06:55:40.636Z,98884.94
2022-12-18T06:58:09.771Z,98903.69
2022-12-18T07:00:39.653Z,98907.03
2022-12-18T07:03:09.433Z,98907.53
2022-12-18T07:05:41.745Z,98932.41
2022-12-18T07:08:10.118Z,98922.47
2022-12-18T07:10:47.400Z,98924.66
2022-12-18T07:13:16.356Z,98949.75
2022-12-18T07:15:44.558Z,98951.81
2022-12-18T07:18:14.869Z,98937.50
2022-12-18T07:20:43.525Z,98954.38
2022-12-18T07:23:11.542Z,98941.59
2022-12-18T07:25:40.519Z,98948.41
2022-12-18T07:28:11.657Z,98948.97
2022-12-18T07:30:43.863Z,98961.88
2022-12-18T07:33:11.975Z,98972.47
2022-12-18T07:35:41.520Z,98961.75
2022-12-18T07:38:09.749Z,98970.47
2022-12-18T07:40:37.897Z,98960.16
2022-12-18T07:43:05.957Z,98986.84
2022-12-18T07:45:34.067Z,98987.06
2022-12-18T07:48:02.188Z,99005.41
2022-12-18T07:50:30.250Z,99004.50
2022-12-18T07:52:59.890Z,98994.88
2022-12-18T07:55:28.498Z,98995.13
2022-12-18T07:58:01.182Z,99007.34
2022-12-18T08:00:29.573Z,98997.56
2022-12-18T08:02:57.883Z,98996.50
2022-12-18T08:05:26.285Z,98994.50
2022-12-18T08:07:55.004Z,98999.16
2022-12-18T08:10:24.569Z,99000.44
2022-12-18T08:12:53.059Z,99019.63
2022-12-18T08:15:21.087Z,99035.41
2022-12-18T08:17:50.004Z,99014.22
2022-12-18T08:20:19.530Z,99018.91
2022-12-18T08:22:47.614Z,99014.75
2022-12-18T08:25:15.848Z,99030.53
2022-12-18T08:27:45.412Z,99028.50
2022-12-18T08:30:13.904Z,99025.22
2022-12-18T08:32:42.060Z,99053.13
2022-12-18T08:35:12.782Z,99041.56
2022-12-18T08:37:41.035Z,99059.66
2022-12-18T08:40:11.446Z,99059.63
2022-12-18T08:42:57.066Z,99056.91
2022-12-18T08:45:27.402Z,99042.94
2022-12-18T08:47:56.012Z,99073.31
2022-12-18T08:50:24.072Z,99086.25
2022-12-18T08:52:52.414Z,99101.03
2022-12-18T08:55:20.867Z,99092.81
2022-12-18T08:57:50.444Z,99109.94
2022-12-18T09:00:18.839Z,99093.78
2022-12-18T09:02:48.432Z,99106.59
2022-12-18T09:05:17.593Z,99068.75
2022-12-18T09:07:45.602Z,99108.88
2022-12-18T09:10:14.565Z,99108.22
2022-12-18T09:12:42.645Z,99133.13
2022-12-18T09:15:11.412Z,99125.25
2022-12-18T09:17:39.511Z,99106.78
2022-12-18T09:20:10.092Z,99100.91
2022-12-18T09:22:38.399Z,99120.94
2022-12-18T09:25:08.853Z,99118.28
2022-12-18T09:27:37.165Z,99110.81
2022-12-18T09:30:06.042Z,99126.41
2022-12-18T09:32:34.309Z,99140.84
2022-12-18T09:35:02.790Z,99125.91
2022-12-18T09:37:32.933Z,99126.50
2022-12-18T09:40:04.065Z,99123.25
2022-12-18T09:42:32.569Z,99122.06
2022-12-18T09:45:03.309Z,99140.25
2022-12-18T09:47:33.256Z,99142.84
2022-12-18T09:50:06.046Z,99160.06
2022-12-18T09:52:38.207Z,99155.53
2022-12-18T09:55:11.893Z,99167.59
2022-12-18T09:57:45.883Z,99172.91
2022-12-18T10:00:18.414Z,99162.69
2022-12-18T10:02:47.370Z,99166.53
2022-12-18T10:05:16.547Z,99164.69
2022-12-18T10:07:59.410Z,99186.19
2022-12-18T10:10:40.534Z,99165.53
2022-12-18T10:13:13.020Z,99181.50
2022-12-18T10:15:44.075Z,99144.44
2022-12-18T10:18:23.922Z,99184.00
2022-12-18T10:20:54.240Z,99172.22
2022-12-18T10:23:28.649Z,99173.25
2022-12-18T10:26:02.129Z,99178.53
2022-12-18T10:28:31.755Z,99177.69
2022-12-18T10:31:00.706Z,99182.03
2022-12-18T10:33:31.173Z,99170.63
2022-12-18T10:35:59.394Z,99179.91
2022-12-18T10:38:29.740Z,99196.22
2022-12-18T10:40:59.152Z,99208.84
2022-12-18T10:43:28.343Z,99174.25
2022-12-18T10:46:13.801Z,99184.44
2022-12-18T10:48:43.583Z,99208.22
2022-12-18T10:51:12.947Z,99204.31
2022-12-18T10:53:44.684Z,99225.09
2022-12-18T10:56:13.097Z,99197.78
2022-12-18T10:58:41.824Z,99203.50
2022-12-18T11:01:13.355Z,99202.22
2022-12-18T11:03:44.393Z,99220.53
2022-12-18T11:06:13.396Z,99232.63
2022-12-18T11:08:43.968Z,99214.16
2022-12-18T11:11:18.643Z,99227.56
2022-12-18T11:13:54.835Z,99238.78
2022-12-18T11:16:23.329Z,99240.19
2022-12-18T11:18:51.692Z,99254.56
2022-12-18T11:21:20.047Z,99275.31
2022-12-18T11:23:52.689Z,99277.97
2022-12-18T11:26:22.588Z,99266.53
2022-12-18T11:28:54.983Z,99269.66
2022-12-18T11:31:25.654Z,99265.81
2022-12-18T11:36:50.336Z,99269.72
2022-12-18T11:39:22.470Z,99263.19
2022-12-18T11:42:13.353Z,99274.81
2022-12-18T11:44:45.116Z,99275.53
2022-12-18T11:47:18.083Z,99277.34
2022-12-18T11:49:47.920Z,99279.06
2022-12-18T11:52:19.522Z,99282.00
2022-12-18T11:54:49.490Z,99294.22
2022-12-18T11:57:28.124Z,99301.88
2022-12-18T11:59:59.341Z,99294.53
2022-12-18T12:02:39.581Z,99315.63
2022-12-18T12:05:17.908Z,99317.81
2022-12-18T12:07:56.954Z,99331.31
2022-12-18T12:10:37.646Z,99338.94
2022-12-18T12:13:15.720Z,99331.72
2022-12-18T12:15:49.776Z,99322.31
2022-12-18T12:18:24.237Z,99319.41
2022-12-18T12:20:56.866Z,99334.94
2022-12-18T12:23:30.214Z,99344.59
2022-12-18T12:26:03.689Z,99339.16
2022-12-18T12:28:57.988Z,99348.44
2022-12-18T12:31:34.847Z,99382.81
2022-12-18T12:34:10.460Z,99352.16
2022-12-18T12:36:45.080Z,99371.19
2022-12-18T12:39:16.462Z,99393.03
2022-12-18T12:42:05.064Z,99360.34
2022-12-18T12:44:35.020Z,99385.16
2022-12-18T12:47:09.682Z,99392.47
2022-12-18T12:49:40.942Z,99390.13
2022-12-18T12:52:13.411Z,99397.22
2022-12-18T12:54:42.530Z,99378.84
2022-12-18T12:57:15.197Z,99402.59
2022-12-18T12:59:50.695Z,99405.88
2022-12-18T13:02:22.958Z,99408.22
2022-12-18T13:04:58.796Z,99418.56
2022-12-18T13:07:31.850Z,99416.69
2022-12-18T13:10:26.803Z,99443.03
2022-12-18T13:12:57.119Z,99440.47
2022-12-18T13:15:27.548Z,99433.56
2022-12-18T13:18:13.939Z,99455.91
2022-12-18T13:20:45.635Z,99443.75
2022-12-18T13:23:37.981Z,99465.94
2022-12-18T13:26:28.107Z,99455.78
2022-12-18T13:29:05.399Z,99453.66
2022-12-18T13:31:57.680Z,99480.41
2022-12-18T13:34:29.452Z,99464.78
2022-12-18T13:37:00.681Z,99478.13
2022-12-18T13:39:35.874Z,99480.28
2022-12-18T13:42:36.523Z,99487.22
2022-12-18T13:45:24.006Z,99469.56
2022-12-18T13:47:53.804Z,99530.38
2022-12-18T13:50:24.715Z,99488.31
2022-12-18T13:52:54.001Z,99505.09
2022-12-18T13:55:23.321Z,99516.66
2022-12-18T13:57:51.614Z,99519.72
2022-12-18T14:00:26.565Z,99524.03
2022-12-18T14:02:57.232Z,99564.91
2022-12-18T14:05:26.021Z,99537.47
2022-12-18T14:07:58.639Z,99548.75
2022-12-18T14:10:45.607Z,99540.78
2022-12-18T14:13:18.231Z,99548.97
2022-12-18T14:15:50.998Z,99556.38
2022-12-18T14:18:22.890Z,99565.31
2022-12-18T14:20:53.265Z,99554.16
2022-12-18T14:23:31.935Z,99568.19
2022-12-18T14:26:05.413Z,99572.88
2022-12-18T14:28:34.395Z,99589.78
2022-12-18T14:31:02.585Z,99582.41
2022-12-18T14:33:32.190Z,99579.38
2022-12-18T14:36:01.754Z,99585.13
2022-12-18T14:38:31.004Z,99575.84
2022-12-18T14:41:00.145Z,99585.28
2022-12-18T14:43:28.934Z,99592.50
2022-12-18T14:45:57.463Z,99606.88
2022-12-18T14:48:34.594Z,99596.78
2022-12-18T14:51:05.712Z,99601.59
2022-12-18T14:53:39.212Z,99610.97
2022-12-18T14:56:17.007Z,99617.38
2022-12-18T14:58:49.818Z,99609.19
2022-12-18T15:01:22.121Z,99647.09
2022-12-18T15:03:52.837Z,99620.28
2022-12-18T15:06:28.060Z,99649.75
2022-12-18T15:08:57.266Z,99645.63
2022-12-18T15:11:28.011Z,99681.28
2022-12-18T15:13:56.416Z,99653.75
2022-12-18T15:16:24.816Z,99666.22
2022-12-18T15:18:53.511Z,99681.06
2022-12-18T15:21:22.579Z,99677.88
2022-12-18T15:23:53.559Z,99685.31
2022-12-18T15:26:30.066Z,99666.81
2022-12-18T15:28:59.700Z,99662.09
2022-12-18T15:31:31.903Z,99704.66
2022-12-18T15:34:14.800Z,99694.91
2022-12-18T15:36:43.242Z,99680.16
2022-12-18T15:39:14.912Z,99707.22
2022-12-18T15:42:03.806Z,99699.03
2022-12-18T15:44:32.123Z,99702.88
2022-12-18T15:47:00.739Z,99695.78
2022-12-18T15:49:29.040Z,99702.13
2022-12-18T15:51:59.018Z,99704.63
2022-12-18T15:54:46.005Z,99718.94
2022-12-18T15:57:27.625Z,99696.97
2022-12-18T15:59:59.576Z,99716.81
2022-12-18T16:02:29.452Z,99724.41
2022-12-18T16:04:58.564Z,99731.34
2022-12-18T16:07:30.588Z,99737.25
2022-12-18T16:10:02.371Z,99730.06
2022-12-18T16:12:32.379Z,99734.13
2022-12-18T16:15:01.736Z,99753.28
2022-12-18T16:17:31.995Z,99764.06
2022-12-18T16:20:01.238Z,99787.91
2022-12-18T16:22:31.425Z,99793.13
2022-12-18T16:25:01.912Z,99768.78
2022-12-18T16:27:31.283Z,99803.44
2022-12-18T16:30:00.651Z,99786.59
2022-12-18T16:32:29.141Z,99794.09
2022-12-18T16:35:02.089Z,99800.59
2022-12-18T16:37:31.608Z,99805.41
2022-12-18T16:40:01.498Z,99804.44
2022-12-18T16:42:30.960Z,99820.31
2022-12-18T16:44:59.528Z,99812.69
2022-12-18T16:47:27.877Z,99831.63
2022-12-18T16:49:56.147Z,99822.28
2022-12-18T16:52:24.602Z,99840.75
2022-12-18T16:54:53.157Z,99829.78
2022-12-18T16:57:25.169Z,99845.19
2022-12-18T16:59:58.756Z,99841.44
2022-12-18T17:02:32.629Z,99840.50
2022-12-18T17:05:01.553Z,99848.34
2022-12-18T17:07:31.721Z,99844.78
2022-12-18T17:10:00.763Z,99856.88
2022-12-18T17:12:31.331Z,99859.69
2022-12-18T17:15:02.319Z,99858.53
2022-12-18T17:17:31.649Z,99860.94
2022-12-18T17:20:00.655Z,99869.19
2022-12-18T17:22:29.367Z,99878.09
2022-12-18T17:24:58.945Z,99870.38
2022-12-18T17:27:28.549Z,99882.78
2022-12-18T17:29:59.738Z,99885.91
2022-12-18T17:32:28.921Z,99883.13
2022-12-18T17:35:00.514Z,99896.13
2022-12-18T17:37:32.931Z,99893.78
2022-12-18T17:40:04.789Z,99898.22
2022-12-18T17:42:33.828Z,99901.53
2022-12-18T17:45:04.889Z,99904.75
2022-12-18T17:47:34.238Z,99910.84
2022-12-18T17:50:03.894Z,99929.19
2022-12-18T17:52:32.666Z,99923.66
2022-12-18T17:55:01.447Z,99939.94
2022-12-18T17:57:30.633Z,99937.53
2022-12-18T17:59:59.369Z,99927.09
2022-12-18T18:02:29.910Z,99941.94
2022-12-18T18:04:59.231Z,99928.59
2022-12-18T18:07:27.912Z,99950.16
2022-12-18T18:09:56.281Z,99926.63
2022-12-18T18:12:42.182Z,99950.31
2022-12-18T18:15:11.215Z,99959.03
2022-12-18T18:17:42.299Z,99941.31
2022-12-18T18:20:12.227Z,99948.66
2022-12-18T18:22:41.618Z,99963.88
2022-12-18T18:25:46.789Z,99962.91
2022-12-18T18:28:23.632Z,99971.63
2022-12-18T18:30:52.868Z,99982.28
2022-12-18T18:33:24.040Z,99975.97
2022-12-18T18:35:54.488Z,99970.88
2022-12-18T18:38:23.820Z,99983.88
2022-12-18T18:41:00.364Z,99975.09
2022-12-18T18:43:29.389Z,100029.81
2022-12-18T18:45:58.157Z,99979.69
2022-12-18T18:48:33.703Z,100039.94
2022-12-18T18:51:07.089Z,100025.41
2022-12-18T18:53:38.441Z,100011.06
2022-12-18T18:56:50.214Z,100015.34
2022-12-18T18:58:58.266Z,100028.69
2022-12-18T19:01:27.606Z,100039.38
2022-12-18T19:03:57.647Z,100036.38
2022-12-18T19:06:27.780Z,100036.06
2022-12-18T19:08:57.133Z,100031.41
2022-12-18T19:11:45.579Z,100055.28
2022-12-18T19:14:14.878Z,100036.66
2022-12-18T19:16:43.574Z,100058.41
2022-12-18T19:19:14.458Z,100054.88
2022-12-18T19:21:43.787Z,100055.63
2022-12-18T19:24:12.326Z,100073.44
2022-12-18T19:26:40.552Z,100085.75
2022-12-18T19:29:09.791Z,100089.00
2022-12-18T19:31:40.154Z,100100.28
2022-12-18T19:34:15.861Z,100100.34
2022-12-18T19:36:44.510Z,100097.94
2022-12-18T19:39:14.361Z,100096.94
2022-12-18T19:41:44.685Z,100103.41
2022-12-18T19:44:15.075Z,100108.25
2022-12-18T19:46:43.634Z,100127.41
2022-12-18T19:49:17.413Z,100111.00
2022-12-18T19:51:47.746Z,100117.25
2022-12-18T19:54:24.234Z,100128.47
2022-12-18T19:56:54.958Z,100120.06
2022-12-18T19:59:23.230Z,100135.53
2022-12-18T20:01:53.580Z,100134.75
2022-12-18T20:04:23.613Z,100112.59
2022-12-18T20:06:52.811Z,100134.25
2022-12-18T20:09:22.092Z,100135.09
2022-12-18T20:11:51.607Z,100149.72
2022-12-18T20:14:23.490Z,100157.25
2022-12-18T20:16:53.473Z,100153.91
2022-12-18T20:19:24.491Z,100163.66
2022-12-18T20:21:53.070Z,100154.00
2022-12-18T20:24:21.590Z,100177.97
2022-12-18T20:26:49.996Z,100167.91
2022-12-18T20:29:19.395Z,100165.16
2022-12-18T20:31:48.472Z,100181.41
2022-12-18T20:34:17.991Z,100166.25
2022-12-18T20:36:48.136Z,100181.50
2022-12-18T20:39:18.230Z,100179.53
2022-12-18T20:41:47.959Z,100178.91
2022-12-18T20:44:22.859Z,100187.31
2022-12-18T20:46:53.878Z,100173.81
2022-12-18T20:49:22.690Z,100166.84
2022-12-18T20:51:53.803Z,100173.84
2022-12-18T20:54:22.918Z,100184.00
2022-12-18T20:56:51.703Z,100177.00
2022-12-18T20:59:27.613Z,100187.16
2022-12-18T21:06:54.233Z,100197.56
2022-12-18T21:09:37.299Z,100201.03
2022-12-18T21:12:25.171Z,100185.75
2022-12-18T21:14:54.184Z,100191.94
2022-12-18T21:17:23.095Z,100191.03
2022-12-18T21:22:44.585Z,100193.44
2022-12-18T21:25:14.139Z,100201.44
2022-12-18T21:27:43.114Z,100202.09
2022-12-18T21:30:12.811Z,100208.84
2022-12-18T21:32:41.989Z,100202.09
2022-12-18T21:35:12.782Z,100200.59
2022-12-18T21:37:43.281Z,100218.25
2022-12-18T21:40:13.433Z,100209.09
2022-12-18T21:43:26.827Z,100239.06
2022-12-18T21:45:57.077Z,100209.22
2022-12-18T21:48:28.340Z,100226.78
2022-12-18T21:50:58.563Z,100227.78
2022-12-18T21:53:30.227Z,100224.38
2022-12-18T21:56:01.908Z,100219.34
2022-12-18T21:58:31.172Z,100234.69
2022-12-18T22:01:01.905Z,100239.00
2022-12-18T22:03:31.237Z,100239.59
2022-12-18T22:06:08.927Z,100238.75
2022-12-18T22:08:43.029Z,100227.69
2022-12-18T22:11:14.865Z,100236.34
2022-12-18T22:13:45.017Z,100252.69
2022-12-18T22:16:13.996Z,100258.56
2022-12-18T22:18:42.810Z,100252.53
2022-12-18T22:21:29.324Z,100254.22
2022-12-18T22:24:00.412Z,100262.00
2022-12-18T22:26:35.033Z,100262.09
2022-12-18T22:29:27.898Z,100267.88
2022-12-18T22:31:57.230Z,100254.13
2022-12-18T22:34:26.296Z,100256.91
2022-12-18T22:36:57.242Z,100259.38
2022-12-18T22:39:28.500Z,100257.78
2022-12-18T22:41:58.101Z,100233.91
2022-12-18T22:44:27.139Z,100251.81
2022-12-18T22:47:00.810Z,100261.22
2022-12-18T22:49:36.193Z,100245.91
2022-12-18T22:52:09.500Z,100253.41
2022-12-18T22:54:39.239Z,100261.22
2022-12-18T22:57:08.034Z,100279.03
2022-12-18T22:59:36.903Z,100262.78
2022-12-18T23:02:05.828Z,100262.81
2022-12-18T23:04:36.533Z,100271.09
2022-12-18T23:07:07.927Z,100275.63
2022-12-18T23:09:37.038Z,100294.50
2022-12-18T23:12:06.244Z,100286.66
2022-12-18T23:14:36.764Z,100284.19
2022-12-18T23:17:05.788Z,100284.19
2022-12-18T23:19:34.839Z,100279.75
2022-12-18T23:22:07.348Z,100279.75
2022-12-18T23:24:41.824Z,100287.53
2022-12-18T23:27:11.589Z,100281.66
2022-12-18T23:29:41.472Z,100292.75
2022-12-18T23:32:10.379Z,100297.91
2022-12-18T23:34:39.100Z,100298.78
2022-12-18T23:37:08.115Z,100306.41
2022-12-18T23:39:36.883Z,100302.25
2022-12-18T23:42:07.699Z,100310.84
2022-12-18T23:44:36.655Z,100298.84
2022-12-18T23:47:07.141Z,100316.75
2022-12-18T23:49:36.658Z,100320.13
2022-12-18T23:52:06.540Z,100321.00
2022-12-18T23:54:39.628Z,100325.94
2022-12-18T23:57:10.149Z,100328.56
2022-12-18T23:59:39.147Z,100323.50
